LHA280 HKMO-HTKJ
Flight info
| Callsign | LHA280 |
|---|---|
| Flight time | 0h 34m |
| Altitude | 20000 |
| Route | GADLA L434 OKNES |
| Aircraft | B77L/H-SDE1E2FGIJ1RWYZ/S |
Departure
| Time | 2026-04-22 13:22 |
|---|---|
| Airport | Moi International Airport (HKMO) |
Arrival
| Time | 2026-04-22 13:56 |
|---|---|
| Airport | Kilimanjaro International Airport (HTKJ) |
| Time | Latitude | Longitude | Altitude | Speed | Heading |
|---|---|---|---|---|---|
| 2026-04-22 13:03 | -4.03153 | 39.60216 | 213 ft | 0 kts | 118° |
| 2026-04-22 13:12 | -4.03146 | 39.60204 | 213 ft | 2 kts | 120° |
| 2026-04-22 13:12 | -4.03139 | 39.60191 | 213 ft | 1 kts | 120° |
| 2026-04-22 13:12 | -4.03134 | 39.60183 | 213 ft | 2 kts | 113° |
| 2026-04-22 13:12 | -4.03130 | 39.60168 | 213 ft | 2 kts | 88° |
| 2026-04-22 13:13 | -4.03133 | 39.60154 | 213 ft | 2 kts | 62° |
| 2026-04-22 13:13 | -4.03142 | 39.60141 | 213 ft | 2 kts | 43° |
| 2026-04-22 13:13 | -4.03149 | 39.60135 | 213 ft | 0 kts | 29° |
| 2026-04-22 13:13 | -4.03153 | 39.60134 | 213 ft | 0 kts | 28° |
| 2026-04-22 13:15 | -4.03115 | 39.60141 | 213 ft | 12 kts | 354° |
| 2026-04-22 13:15 | -4.03025 | 39.60060 | 213 ft | 21 kts | 303° |
| 2026-04-22 13:16 | -4.02962 | 39.59969 | 211 ft | 13 kts | 322° |
| 2026-04-22 13:16 | -4.02869 | 39.59974 | 209 ft | 14 kts | 26° |
| 2026-04-22 13:16 | -4.02772 | 39.60025 | 208 ft | 16 kts | 28° |
| 2026-04-22 13:16 | -4.02665 | 39.60084 | 206 ft | 17 kts | 29° |
| 2026-04-22 13:17 | -4.02552 | 39.60146 | 204 ft | 19 kts | 29° |
| 2026-04-22 13:17 | -4.02433 | 39.60213 | 204 ft | 19 kts | 29° |
| 2026-04-22 13:17 | -4.02314 | 39.60279 | 203 ft | 19 kts | 30° |
| 2026-04-22 13:17 | -4.02196 | 39.60347 | 204 ft | 19 kts | 29° |
| 2026-04-22 13:18 | -4.02082 | 39.60411 | 206 ft | 18 kts | 29° |
| 2026-04-22 13:18 | -4.01976 | 39.60470 | 208 ft | 16 kts | 29° |
| 2026-04-22 13:18 | -4.01875 | 39.60526 | 210 ft | 16 kts | 29° |
| 2026-04-22 13:18 | -4.01769 | 39.60585 | 211 ft | 17 kts | 29° |
| 2026-04-22 13:19 | -4.01658 | 39.60648 | 212 ft | 18 kts | 29° |
| 2026-04-22 13:19 | -4.01552 | 39.60707 | 216 ft | 16 kts | 28° |
| 2026-04-22 13:19 | -4.01443 | 39.60732 | 217 ft | 15 kts | 352° |
| 2026-04-22 13:19 | -4.01357 | 39.60679 | 219 ft | 14 kts | 292° |
| 2026-04-22 13:20 | -4.01399 | 39.60599 | 217 ft | 10 kts | 210° |
| 2026-04-22 13:20 | -4.01402 | 39.60597 | 216 ft | 0 kts | 210° |
| 2026-04-22 13:20 | -4.01405 | 39.60595 | 216 ft | 2 kts | 210° |
| 2026-04-22 13:21 | -4.01538 | 39.60518 | 212 ft | 55 kts | 210° |
| 2026-04-22 13:21 | -4.02072 | 39.60218 | 195 ft | 119 kts | 209° |
| 2026-04-22 13:21 | -4.02948 | 39.59722 | 227 ft | 165 kts | 211° |
| 2026-04-22 13:21 | -4.03945 | 39.59132 | 798 ft | 165 kts | 210° |
| 2026-04-22 13:22 | -4.04909 | 39.58577 | 1511 ft | 157 kts | 213° |
| 2026-04-22 13:22 | -4.05484 | 39.57682 | 2064 ft | 169 kts | 263° |
| 2026-04-22 13:22 | -4.05301 | 39.56453 | 2453 ft | 188 kts | 284° |
| 2026-04-22 13:22 | -4.04865 | 39.55174 | 2837 ft | 205 kts | 287° |
| 2026-04-22 13:23 | -4.04384 | 39.53754 | 3225 ft | 223 kts | 285° |
| 2026-04-22 13:23 | -4.03918 | 39.52221 | 3648 ft | 241 kts | 283° |
| 2026-04-22 13:23 | -4.03456 | 39.50551 | 4093 ft | 259 kts | 282° |
| 2026-04-22 13:23 | -4.02982 | 39.48744 | 4537 ft | 277 kts | 282° |
| 2026-04-22 13:24 | -4.02494 | 39.46835 | 5110 ft | 288 kts | 282° |
| 2026-04-22 13:24 | -4.01997 | 39.44882 | 5838 ft | 293 kts | 283° |
| 2026-04-22 13:24 | -4.01500 | 39.42921 | 6565 ft | 296 kts | 283° |
| 2026-04-22 13:24 | -4.00995 | 39.40927 | 7278 ft | 298 kts | 283° |
| 2026-04-22 13:25 | -4.00487 | 39.38923 | 7975 ft | 301 kts | 284° |
| 2026-04-22 13:25 | -3.99866 | 39.36908 | 8668 ft | 303 kts | 289° |
| 2026-04-22 13:25 | -3.99173 | 39.34928 | 9351 ft | 305 kts | 290° |
| 2026-04-22 13:25 | -3.98454 | 39.32911 | 10013 ft | 307 kts | 290° |
| 2026-04-22 13:26 | -3.97728 | 39.30883 | 10464 ft | 318 kts | 290° |
| 2026-04-22 13:26 | -3.96964 | 39.28746 | 10745 ft | 334 kts | 290° |
| 2026-04-22 13:26 | -3.96172 | 39.26522 | 11019 ft | 350 kts | 290° |
| 2026-04-22 13:26 | -3.95342 | 39.24185 | 11469 ft | 359 kts | 290° |
| 2026-04-22 13:27 | -3.94505 | 39.21827 | 12097 ft | 362 kts | 290° |
| 2026-04-22 13:27 | -3.93658 | 39.19439 | 12758 ft | 363 kts | 290° |
| 2026-04-22 13:27 | -3.92813 | 39.17054 | 13351 ft | 367 kts | 290° |
| 2026-04-22 13:27 | -3.91968 | 39.14673 | 13931 ft | 370 kts | 290° |
| 2026-04-22 13:28 | -3.91103 | 39.12241 | 14528 ft | 373 kts | 290° |
| 2026-04-22 13:28 | -3.90225 | 39.09766 | 15114 ft | 376 kts | 290° |
| 2026-04-22 13:28 | -3.89351 | 39.07302 | 15685 ft | 379 kts | 290° |
| 2026-04-22 13:28 | -3.88468 | 39.04811 | 16262 ft | 381 kts | 290° |
| 2026-04-22 13:29 | -3.87589 | 39.02331 | 16829 ft | 384 kts | 290° |
| 2026-04-22 13:29 | -3.86690 | 38.99796 | 17385 ft | 388 kts | 290° |
| 2026-04-22 13:29 | -3.85790 | 38.97261 | 17935 ft | 390 kts | 290° |
| 2026-04-22 13:29 | -3.84871 | 38.94675 | 18457 ft | 394 kts | 290° |
| 2026-04-22 13:30 | -3.83961 | 38.92112 | 18951 ft | 398 kts | 290° |
| 2026-04-22 13:30 | -3.83025 | 38.89472 | 19422 ft | 402 kts | 290° |
| 2026-04-22 13:30 | -3.82083 | 38.86818 | 19798 ft | 406 kts | 290° |
| 2026-04-22 13:30 | -3.81135 | 38.84144 | 19922 ft | 409 kts | 290° |
| 2026-04-22 13:31 | -3.80185 | 38.81466 | 19922 ft | 407 kts | 290° |
| 2026-04-22 13:31 | -3.79244 | 38.78815 | 19920 ft | 407 kts | 290° |
| 2026-04-22 13:31 | -3.78294 | 38.76136 | 19921 ft | 408 kts | 290° |
| 2026-04-22 13:31 | -3.77347 | 38.73468 | 19932 ft | 408 kts | 290° |
| 2026-04-22 13:32 | -3.76391 | 38.70779 | 19932 ft | 408 kts | 290° |
| 2026-04-22 13:32 | -3.75452 | 38.68133 | 19936 ft | 408 kts | 290° |
| 2026-04-22 13:32 | -3.74502 | 38.65459 | 19936 ft | 408 kts | 290° |
| 2026-04-22 13:32 | -3.73572 | 38.62780 | 19943 ft | 408 kts | 288° |
| 2026-04-22 13:33 | -3.72782 | 38.60027 | 19936 ft | 408 kts | 284° |
| 2026-04-22 13:33 | -3.72167 | 38.57272 | 19942 ft | 408 kts | 282° |
| 2026-04-22 13:33 | -3.71595 | 38.54480 | 19942 ft | 408 kts | 282° |
| 2026-04-22 13:33 | -3.71032 | 38.51706 | 19949 ft | 408 kts | 282° |
| 2026-04-22 13:34 | -3.70468 | 38.48932 | 19956 ft | 409 kts | 282° |
| 2026-04-22 13:34 | -3.69900 | 38.46144 | 19963 ft | 409 kts | 282° |
| 2026-04-22 13:34 | -3.69329 | 38.43354 | 19965 ft | 410 kts | 282° |
| 2026-04-22 13:34 | -3.68761 | 38.40579 | 19967 ft | 410 kts | 282° |
| 2026-04-22 13:35 | -3.68187 | 38.37784 | 19972 ft | 409 kts | 282° |
| 2026-04-22 13:35 | -3.67610 | 38.34971 | 19980 ft | 410 kts | 282° |
| 2026-04-22 13:35 | -3.67042 | 38.32209 | 19981 ft | 409 kts | 282° |
| 2026-04-22 13:35 | -3.66467 | 38.29407 | 19989 ft | 410 kts | 282° |
| 2026-04-22 13:36 | -3.65893 | 38.26611 | 19996 ft | 410 kts | 282° |
| 2026-04-22 13:36 | -3.65322 | 38.23835 | 19998 ft | 410 kts | 282° |
| 2026-04-22 13:36 | -3.64749 | 38.21043 | 20001 ft | 410 kts | 282° |
| 2026-04-22 13:36 | -3.64175 | 38.18251 | 20007 ft | 410 kts | 282° |
| 2026-04-22 13:37 | -3.63599 | 38.15446 | 20012 ft | 410 kts | 282° |
| 2026-04-22 13:37 | -3.63032 | 38.12687 | 20011 ft | 410 kts | 282° |
| 2026-04-22 13:37 | -3.62452 | 38.09868 | 20015 ft | 411 kts | 282° |
| 2026-04-22 13:37 | -3.61881 | 38.07088 | 20020 ft | 411 kts | 282° |
| 2026-04-22 13:38 | -3.61303 | 38.04280 | 20019 ft | 411 kts | 282° |
| 2026-04-22 13:38 | -3.60197 | 37.98668 | 20019 ft | 411 kts | 281° |
| 2026-04-22 13:38 | -3.59668 | 37.95864 | 20020 ft | 411 kts | 281° |
| 2026-04-22 13:39 | -3.59144 | 37.93063 | 20017 ft | 410 kts | 279° |
| 2026-04-22 13:39 | -3.58794 | 37.90220 | 20017 ft | 410 kts | 274° |
| 2026-04-22 13:39 | -3.58715 | 37.87387 | 20023 ft | 410 kts | 269° |
| 2026-04-22 13:39 | -3.58839 | 37.84542 | 20014 ft | 411 kts | 267° |
| 2026-04-22 13:40 | -3.59003 | 37.81696 | 19672 ft | 412 kts | 266° |
| 2026-04-22 13:40 | -3.59174 | 37.78826 | 19226 ft | 412 kts | 266° |
| 2026-04-22 13:40 | -3.59342 | 37.75962 | 18821 ft | 410 kts | 267° |
| 2026-04-22 13:40 | -3.59502 | 37.73159 | 18430 ft | 407 kts | 267° |
| 2026-04-22 13:41 | -3.59660 | 37.70332 | 18040 ft | 405 kts | 267° |
| 2026-04-22 13:41 | -3.59813 | 37.67550 | 17664 ft | 402 kts | 267° |
| 2026-04-22 13:41 | -3.59966 | 37.64764 | 17284 ft | 399 kts | 267° |
| 2026-04-22 13:41 | -3.60115 | 37.62003 | 16909 ft | 397 kts | 267° |
| 2026-04-22 13:42 | -3.60266 | 37.59244 | 16521 ft | 394 kts | 267° |
| 2026-04-22 13:42 | -3.60414 | 37.56514 | 16134 ft | 392 kts | 267° |
| 2026-04-22 13:42 | -3.60560 | 37.53807 | 15761 ft | 390 kts | 267° |
| 2026-04-22 13:42 | -3.60707 | 37.51114 | 15382 ft | 387 kts | 267° |
| 2026-04-22 13:43 | -3.60851 | 37.48457 | 15011 ft | 385 kts | 267° |
| 2026-04-22 13:43 | -3.60995 | 37.45795 | 14639 ft | 383 kts | 267° |
| 2026-04-22 13:43 | -3.61140 | 37.43130 | 14265 ft | 381 kts | 267° |
| 2026-04-22 13:43 | -3.61282 | 37.40500 | 13888 ft | 379 kts | 267° |
| 2026-04-22 13:44 | -3.61424 | 37.37869 | 13512 ft | 377 kts | 267° |
| 2026-04-22 13:44 | -3.61564 | 37.35277 | 13135 ft | 375 kts | 267° |
| 2026-04-22 13:44 | -3.61704 | 37.32693 | 12770 ft | 373 kts | 267° |
| 2026-04-22 13:44 | -3.61843 | 37.30123 | 12399 ft | 370 kts | 267° |
| 2026-04-22 13:45 | -3.61982 | 37.27543 | 12034 ft | 368 kts | 267° |
| 2026-04-22 13:45 | -3.62119 | 37.25010 | 11677 ft | 366 kts | 267° |
| 2026-04-22 13:45 | -3.62257 | 37.22453 | 11309 ft | 364 kts | 267° |
| 2026-04-22 13:45 | -3.62392 | 37.19947 | 10940 ft | 362 kts | 267° |
| 2026-04-22 13:46 | -3.62525 | 37.17455 | 10571 ft | 360 kts | 267° |
| 2026-04-22 13:46 | -3.62659 | 37.14975 | 10303 ft | 355 kts | 267° |
| 2026-04-22 13:46 | -3.62789 | 37.12521 | 10170 ft | 345 kts | 269° |
| 2026-04-22 13:46 | -3.62698 | 37.10194 | 10116 ft | 332 kts | 277° |
| 2026-04-22 13:47 | -3.62280 | 37.07938 | 10076 ft | 320 kts | 284° |
| 2026-04-22 13:47 | -3.61770 | 37.05829 | 10031 ft | 310 kts | 285° |
| 2026-04-22 13:47 | -3.61251 | 37.03754 | 9676 ft | 302 kts | 285° |
| 2026-04-22 13:47 | -3.60751 | 37.01745 | 9360 ft | 291 kts | 285° |
| 2026-04-22 13:48 | -3.60284 | 36.99841 | 9147 ft | 278 kts | 285° |
| 2026-04-22 13:48 | -3.59825 | 36.97963 | 9055 ft | 273 kts | 285° |
| 2026-04-22 13:48 | -3.59389 | 36.96157 | 9084 ft | 260 kts | 285° |
| 2026-04-22 13:48 | -3.58971 | 36.94429 | 9034 ft | 251 kts | 285° |
| 2026-04-22 13:49 | -3.58573 | 36.92778 | 9024 ft | 241 kts | 285° |
| 2026-04-22 13:49 | -3.58179 | 36.91151 | 9028 ft | 241 kts | 285° |
| 2026-04-22 13:49 | -3.57783 | 36.89513 | 8894 ft | 238 kts | 285° |
| 2026-04-22 13:49 | -3.57162 | 36.87989 | 8354 ft | 246 kts | 314° |
| 2026-04-22 13:50 | -3.56277 | 36.87287 | 8029 ft | 247 kts | 340° |
| 2026-04-22 13:50 | -3.54031 | 36.86971 | 7403 ft | 248 kts | 1° |
| 2026-04-22 13:50 | -3.52312 | 36.86943 | 7198 ft | 246 kts | 1° |
| 2026-04-22 13:50 | -3.50624 | 36.86897 | 6964 ft | 240 kts | 0° |
| 2026-04-22 13:51 | -3.48936 | 36.86839 | 6789 ft | 238 kts | 360° |
| 2026-04-22 13:51 | -3.47298 | 36.86773 | 6666 ft | 229 kts | 359° |
| 2026-04-22 13:51 | -3.45750 | 36.86723 | 6484 ft | 218 kts | 7° |
| 2026-04-22 13:51 | -3.44397 | 36.87233 | 6280 ft | 203 kts | 48° |
| 2026-04-22 13:52 | -3.43715 | 36.88405 | 6021 ft | 193 kts | 81° |
| 2026-04-22 13:52 | -3.43587 | 36.89718 | 5761 ft | 189 kts | 91° |
| 2026-04-22 13:52 | -3.43593 | 36.91002 | 5583 ft | 182 kts | 92° |
| 2026-04-22 13:52 | -3.43589 | 36.92268 | 5338 ft | 179 kts | 91° |
| 2026-04-22 13:53 | -3.43558 | 36.93492 | 5103 ft | 172 kts | 90° |
| 2026-04-22 13:53 | -3.43511 | 36.94633 | 5014 ft | 156 kts | 89° |
| 2026-04-22 13:53 | -3.43461 | 36.95686 | 4841 ft | 149 kts | 89° |
| 2026-04-22 13:53 | -3.43414 | 36.96715 | 4652 ft | 149 kts | 90° |
| 2026-04-22 13:54 | -3.43367 | 36.97747 | 4464 ft | 148 kts | 90° |
| 2026-04-22 13:54 | -3.43320 | 36.98787 | 4273 ft | 148 kts | 89° |
| 2026-04-22 13:54 | -3.43274 | 36.99817 | 4082 ft | 148 kts | 90° |
| 2026-04-22 13:54 | -3.43228 | 37.00848 | 3894 ft | 148 kts | 90° |
| 2026-04-22 13:55 | -3.43183 | 37.01864 | 3706 ft | 148 kts | 90° |
| 2026-04-22 13:55 | -3.43138 | 37.02898 | 3522 ft | 147 kts | 90° |
| 2026-04-22 13:55 | -3.43096 | 37.03915 | 3334 ft | 147 kts | 90° |
| 2026-04-22 13:55 | -3.43049 | 37.04940 | 3143 ft | 147 kts | 90° |
| 2026-04-22 13:56 | -3.43004 | 37.05973 | 2954 ft | 147 kts | 90° |
| 2026-04-22 13:56 | -3.42971 | 37.06944 | 2946 ft | 129 kts | 85° |
| 2026-04-22 13:56 | -3.42943 | 37.07568 | 2937 ft | 41 kts | 90° |
| 2026-04-22 13:56 | -3.42937 | 37.07800 | 2934 ft | 28 kts | 89° |
| 2026-04-22 13:57 | -3.42933 | 37.07981 | 2933 ft | 23 kts | 88° |
| 2026-04-22 13:57 | -3.42883 | 37.08118 | 2932 ft | 15 kts | 56° |
| 2026-04-22 13:57 | -3.42888 | 37.08164 | 2932 ft | 5 kts | 194° |
| 2026-04-22 13:57 | -3.42906 | 37.08124 | 2932 ft | 8 kts | 262° |
| 2026-04-22 13:58 | -3.42912 | 37.08046 | 2932 ft | 14 kts | 266° |
| 2026-04-22 13:58 | -3.42918 | 37.07931 | 2934 ft | 18 kts | 265° |
| 2026-04-22 13:58 | -3.42924 | 37.07789 | 2934 ft | 22 kts | 268° |
| 2026-04-22 13:58 | -3.42931 | 37.07622 | 2936 ft | 25 kts | 268° |
| 2026-04-22 13:59 | -3.42938 | 37.07447 | 2938 ft | 24 kts | 268° |
| 2026-04-22 13:59 | -3.42943 | 37.07288 | 2941 ft | 21 kts | 274° |
| 2026-04-22 13:59 | -3.42909 | 37.07148 | 2944 ft | 20 kts | 292° |
| 2026-04-22 13:59 | -3.42849 | 37.07024 | 2945 ft | 19 kts | 298° |
| 2026-04-22 14:00 | -3.42776 | 37.06915 | 2947 ft | 18 kts | 310° |
| 2026-04-22 14:00 | -3.42720 | 37.06807 | 2949 ft | 17 kts | 277° |
| 2026-04-22 14:00 | -3.42719 | 37.06691 | 2951 ft | 16 kts | 268° |
| 2026-04-22 14:00 | -3.42678 | 37.06608 | 2953 ft | 13 kts | 341° |
| 2026-04-22 14:01 | -3.42596 | 37.06578 | 2955 ft | 8 kts | 323° |
| 2026-04-22 14:01 | -3.42554 | 37.06564 | 2956 ft | 3 kts | 27° |
| 2026-04-22 14:01 | -3.42560 | 37.06578 | 2956 ft | 0 kts | 174° |